sensor_id;sensor_type;location;lat;lon;timestamp;P1;durP1;ratioP1;P2;durP2;ratioP2
27893;SDS011;15240;50.812;4.792;2023-02-01T06:02:17;23.63;;;5.80;;
27893;SDS011;15240;50.812;4.792;2023-02-01T06:04:43;24.63;;;5.30;;
27893;SDS011;15240;50.812;4.792;2023-02-01T06:13:26;19.53;;;4.47;;
27893;SDS011;15240;50.812;4.792;2023-02-01T06:28:15;21.47;;;4.73;;
27893;SDS011;15240;50.812;4.792;2023-02-01T06:30:41;22.87;;;4.77;;
27893;SDS011;15240;50.812;4.792;2023-02-01T06:33:11;28.40;;;5.67;;
27893;SDS011;15240;50.812;4.792;2023-02-01T06:35:39;27.50;;;5.20;;
27893;SDS011;15240;50.812;4.792;2023-02-01T06:38:07;27.93;;;5.80;;
27893;SDS011;15240;50.812;4.792;2023-02-01T06:40:33;27.93;;;5.30;;
27893;SDS011;15240;50.812;4.792;2023-02-01T06:43:00;27.20;;;5.50;;
27893;SDS011;15240;50.812;4.792;2023-02-01T06:48:30;23.80;;;4.60;;
27893;SDS011;15240;50.812;4.792;2023-02-01T06:50:57;25.70;;;5.40;;
27893;SDS011;15240;50.812;4.792;2023-02-01T06:53:24;29.67;;;5.90;;
27893;SDS011;15240;50.812;4.792;2023-02-01T06:55:57;23.47;;;5.13;;
27893;SDS011;15240;50.812;4.792;2023-02-01T06:58:24;29.30;;;6.00;;
27893;SDS011;15240;50.812;4.792;2023-02-01T07:04:09;29.80;;;5.40;;
27893;SDS011;15240;50.812;4.792;2023-02-01T07:06:36;25.67;;;5.17;;
27893;SDS011;15240;50.812;4.792;2023-02-01T07:09:02;28.33;;;5.50;;
27893;SDS011;15240;50.812;4.792;2023-02-01T07:11:28;25.30;;;5.13;;
27893;SDS011;15240;50.812;4.792;2023-02-01T07:13:54;22.20;;;5.33;;
27893;SDS011;15240;50.812;4.792;2023-02-01T07:16:21;26.73;;;5.77;;
27893;SDS011;15240;50.812;4.792;2023-02-01T07:18:47;26.33;;;5.43;;
27893;SDS011;15240;50.812;4.792;2023-02-01T07:21:13;24.23;;;5.13;;
27893;SDS011;15240;50.812;4.792;2023-02-01T07:23:39;27.70;;;5.93;;
27893;SDS011;15240;50.812;4.792;2023-02-01T07:26:06;25.03;;;5.53;;
27893;SDS011;15240;50.812;4.792;2023-02-01T07:28:36;28.77;;;5.90;;
27893;SDS011;15240;50.812;4.792;2023-02-01T07:31:06;26.30;;;5.67;;
27893;SDS011;15240;50.812;4.792;2023-02-01T07:33:32;28.83;;;5.93;;
27893;SDS011;15240;50.812;4.792;2023-02-01T07:36:00;27.07;;;6.10;;
27893;SDS011;15240;50.812;4.792;2023-02-01T07:38:26;21.30;;;5.40;;
27893;SDS011;15240;50.812;4.792;2023-02-01T07:40:56;23.17;;;5.43;;
27893;SDS011;15240;50.812;4.792;2023-02-01T07:43:23;34.43;;;6.47;;
27893;SDS011;15240;50.812;4.792;2023-02-01T07:45:52;22.50;;;5.33;;
27893;SDS011;15240;50.812;4.792;2023-02-01T07:48:18;29.20;;;6.23;;
27893;SDS011;15240;50.812;4.792;2023-02-01T07:50:44;30.50;;;6.10;;
27893;SDS011;15240;50.812;4.792;2023-02-01T07:53:11;21.77;;;4.90;;
27893;SDS011;15240;50.812;4.792;2023-02-01T07:55:40;23.60;;;5.43;;
27893;SDS011;15240;50.812;4.792;2023-02-01T07:58:06;24.83;;;5.30;;
27893;SDS011;15240;50.812;4.792;2023-02-01T08:00:32;30.60;;;5.97;;
27893;SDS011;15240;50.812;4.792;2023-02-01T08:03:17;30.57;;;5.90;;
27893;SDS011;15240;50.812;4.792;2023-02-01T08:05:43;28.33;;;5.73;;
27893;SDS011;15240;50.812;4.792;2023-02-01T08:08:09;27.13;;;5.87;;
27893;SDS011;15240;50.812;4.792;2023-02-01T08:10:35;23.73;;;5.57;;
27893;SDS011;15240;50.812;4.792;2023-02-01T08:13:02;25.30;;;5.70;;
27893;SDS011;15240;50.812;4.792;2023-02-01T08:15:28;24.27;;;5.30;;
27893;SDS011;15240;50.812;4.792;2023-02-01T08:17:54;28.73;;;5.40;;
27893;SDS011;15240;50.812;4.792;2023-02-01T08:20:22;26.67;;;5.50;;
27893;SDS011;15240;50.812;4.792;2023-02-01T08:22:50;23.47;;;6.00;;
27893;SDS011;15240;50.812;4.792;2023-02-01T08:25:16;21.10;;;5.40;;
27893;SDS011;15240;50.812;4.792;2023-02-01T08:27:43;26.00;;;5.97;;
27893;SDS011;15240;50.812;4.792;2023-02-01T08:30:09;23.13;;;5.20;;
27893;SDS011;15240;50.812;4.792;2023-02-01T08:32:35;34.73;;;5.90;;
27893;SDS011;15240;50.812;4.792;2023-02-01T08:35:02;22.30;;;5.83;;
27893;SDS011;15240;50.812;4.792;2023-02-01T08:37:28;26.47;;;5.37;;
27893;SDS011;15240;50.812;4.792;2023-02-01T08:39:54;27.33;;;5.73;;
27893;SDS011;15240;50.812;4.792;2023-02-01T08:42:20;22.93;;;5.13;;
27893;SDS011;15240;50.812;4.792;2023-02-01T08:45:05;24.57;;;5.00;;
27893;SDS011;15240;50.812;4.792;2023-02-01T08:47:33;26.17;;;5.20;;
27893;SDS011;15240;50.812;4.792;2023-02-01T08:49:59;30.20;;;5.67;;
27893;SDS011;15240;50.812;4.792;2023-02-01T08:52:25;24.93;;;6.03;;
27893;SDS011;15240;50.812;4.792;2023-02-01T08:54:51;22.50;;;5.67;;
27893;SDS011;15240;50.812;4.792;2023-02-01T08:57:17;20.20;;;4.57;;
27893;SDS011;15240;50.812;4.792;2023-02-01T08:59:43;20.10;;;4.93;;
27893;SDS011;15240;50.812;4.792;2023-02-01T09:02:13;22.97;;;6.00;;
27893;SDS011;15240;50.812;4.792;2023-02-01T09:04:39;23.37;;;4.63;;
27893;SDS011;15240;50.812;4.792;2023-02-01T09:07:06;23.10;;;5.03;;
27893;SDS011;15240;50.812;4.792;2023-02-01T09:09:32;21.20;;;5.00;;
27893;SDS011;15240;50.812;4.792;2023-02-01T09:11:58;21.57;;;5.00;;
27893;SDS011;15240;50.812;4.792;2023-02-01T09:14:24;23.87;;;5.07;;
27893;SDS011;15240;50.812;4.792;2023-02-01T09:16:51;17.77;;;4.77;;
27893;SDS011;15240;50.812;4.792;2023-02-01T09:19:17;25.63;;;4.83;;
27893;SDS011;15240;50.812;4.792;2023-02-01T09:21:43;24.03;;;4.97;;
27893;SDS011;15240;50.812;4.792;2023-02-01T09:24:12;18.17;;;4.97;;
27893;SDS011;15240;50.812;4.792;2023-02-01T09:26:38;21.63;;;4.90;;
27893;SDS011;15240;50.812;4.792;2023-02-01T09:29:05;21.83;;;5.30;;
27893;SDS011;15240;50.812;4.792;2023-02-01T09:31:38;26.60;;;5.53;;
27893;SDS011;15240;50.812;4.792;2023-02-01T09:34:04;21.03;;;5.20;;
27893;SDS011;15240;50.812;4.792;2023-02-01T09:36:30;18.17;;;4.87;;
27893;SDS011;15240;50.812;4.792;2023-02-01T09:38:57;26.97;;;5.57;;
27893;SDS011;15240;50.812;4.792;2023-02-01T09:46:20;23.00;;;5.03;;
27893;SDS011;15240;50.812;4.792;2023-02-01T09:48:47;19.40;;;5.03;;
27893;SDS011;15240;50.812;4.792;2023-02-01T09:51:18;24.33;;;4.60;;
27893;SDS011;15240;50.812;4.792;2023-02-01T09:53:47;22.27;;;5.07;;
27893;SDS011;15240;50.812;4.792;2023-02-01T09:56:21;26.73;;;5.37;;
27893;SDS011;15240;50.812;4.792;2023-02-01T09:58:49;24.00;;;5.17;;
27893;SDS011;15240;50.812;4.792;2023-02-01T10:01:17;18.60;;;4.83;;
27893;SDS011;15240;50.812;4.792;2023-02-01T10:03:44;20.83;;;5.20;;
27893;SDS011;15240;50.812;4.792;2023-02-01T10:20:07;17.77;;;4.70;;
27893;SDS011;15240;50.812;4.792;2023-02-01T10:22:39;22.73;;;5.23;;
27893;SDS011;15240;50.812;4.792;2023-02-01T10:27:47;20.77;;;4.33;;
27893;SDS011;15240;50.812;4.792;2023-02-01T10:30:22;24.57;;;5.27;;
27893;SDS011;15240;50.812;4.792;2023-02-01T10:32:49;21.10;;;5.17;;
27893;SDS011;15240;50.812;4.792;2023-02-01T10:35:18;21.37;;;4.20;;
27893;SDS011;15240;50.812;4.792;2023-02-01T10:37:47;18.77;;;4.03;;
27893;SDS011;15240;50.812;4.792;2023-02-01T10:42:42;19.33;;;4.00;;
27893;SDS011;15240;50.812;4.792;2023-02-01T10:45:11;13.93;;;3.63;;
27893;SDS011;15240;50.812;4.792;2023-02-01T10:47:38;20.87;;;4.23;;
27893;SDS011;15240;50.812;4.792;2023-02-01T10:54:56;16.63;;;3.80;;
27893;SDS011;15240;50.812;4.792;2023-02-01T10:57:42;19.30;;;4.20;;
27893;SDS011;15240;50.812;4.792;2023-02-01T11:00:48;18.63;;;4.40;;
27893;SDS011;15240;50.812;4.792;2023-02-01T11:08:54;17.07;;;3.90;;
27893;SDS011;15240;50.812;4.792;2023-02-01T11:11:21;15.20;;;3.40;;
27893;SDS011;15240;50.812;4.792;2023-02-01T11:13:55;15.50;;;3.70;;
27893;SDS011;15240;50.812;4.792;2023-02-01T11:16:21;18.47;;;3.50;;
27893;SDS011;15240;50.812;4.792;2023-02-01T11:18:58;19.17;;;4.23;;
27893;SDS011;15240;50.812;4.792;2023-02-01T11:21:24;14.30;;;3.50;;
27893;SDS011;15240;50.812;4.792;2023-02-01T11:23:51;14.63;;;3.47;;
27893;SDS011;15240;50.812;4.792;2023-02-01T11:29:21;18.93;;;5.03;;
27893;SDS011;15240;50.812;4.792;2023-02-01T11:35:04;17.50;;;4.40;;
27893;SDS011;15240;50.812;4.792;2023-02-01T11:37:32;16.67;;;3.60;;
27893;SDS011;15240;50.812;4.792;2023-02-01T11:40:00;15.83;;;4.60;;
27893;SDS011;15240;50.812;4.792;2023-02-01T11:42:27;19.10;;;3.50;;
27893;SDS011;15240;50.812;4.792;2023-02-01T11:47:40;15.67;;;3.57;;
27893;SDS011;15240;50.812;4.792;2023-02-01T11:50:17;13.87;;;3.13;;
27893;SDS011;15240;50.812;4.792;2023-02-01T12:43:49;10.00;;;2.47;;
27893;SDS011;15240;50.812;4.792;2023-02-01T12:46:26;10.40;;;2.27;;
27893;SDS011;15240;50.812;4.792;2023-02-01T13:23:26;9.53;;;1.80;;
27893;SDS011;15240;50.812;4.792;2023-02-01T13:25:53;11.93;;;2.00;;
27893;SDS011;15240;50.812;4.792;2023-02-01T14:00:43;10.17;;;1.97;;
27893;SDS011;15240;50.812;4.792;2023-02-01T14:06:19;15.43;;;2.70;;
27893;SDS011;15240;50.812;4.792;2023-02-01T14:19:48;12.03;;;2.20;;
27893;SDS011;15240;50.812;4.792;2023-02-01T14:49:06;15.47;;;2.80;;
27893;SDS011;15240;50.812;4.792;2023-02-01T14:51:32;14.27;;;2.67;;
27893;SDS011;15240;50.812;4.792;2023-02-01T15:12:40;16.73;;;2.63;;
27893;SDS011;15240;50.812;4.792;2023-02-01T16:22:28;14.33;;;3.03;;
27893;SDS011;15240;50.812;4.792;2023-02-01T16:24:54;14.23;;;3.77;;
27893;SDS011;15240;50.812;4.792;2023-02-01T16:27:20;16.10;;;3.10;;
27893;SDS011;15240;50.812;4.792;2023-02-01T16:29:47;15.63;;;3.40;;
27893;SDS011;15240;50.812;4.792;2023-02-01T16:32:17;13.70;;;3.30;;
27893;SDS011;15240;50.812;4.792;2023-02-01T16:34:44;17.40;;;3.93;;
27893;SDS011;15240;50.812;4.792;2023-02-01T16:37:19;13.50;;;3.10;;
27893;SDS011;15240;50.812;4.792;2023-02-01T16:39:46;14.67;;;3.93;;
27893;SDS011;15240;50.812;4.792;2023-02-01T16:42:13;13.20;;;2.93;;
27893;SDS011;15240;50.812;4.792;2023-02-01T16:44:39;14.17;;;3.60;;
27893;SDS011;15240;50.812;4.792;2023-02-01T16:50:16;18.37;;;3.57;;
27893;SDS011;15240;50.812;4.792;2023-02-01T16:52:42;15.93;;;3.80;;
27893;SDS011;15240;50.812;4.792;2023-02-01T16:55:10;14.20;;;3.70;;
27893;SDS011;15240;50.812;4.792;2023-02-01T16:57:45;16.00;;;4.20;;
27893;SDS011;15240;50.812;4.792;2023-02-01T17:09:27;12.93;;;2.80;;
27893;SDS011;15240;50.812;4.792;2023-02-01T17:11:54;13.90;;;3.53;;
27893;SDS011;15240;50.812;4.792;2023-02-01T17:17:29;14.53;;;3.90;;
27893;SDS011;15240;50.812;4.792;2023-02-01T17:19:59;17.93;;;4.70;;
27893;SDS011;15240;50.812;4.792;2023-02-01T17:22:25;22.77;;;6.53;;
27893;SDS011;15240;50.812;4.792;2023-02-01T17:24:51;21.10;;;4.67;;
27893;SDS011;15240;50.812;4.792;2023-02-01T17:27:17;18.90;;;3.83;;
27893;SDS011;15240;50.812;4.792;2023-02-01T17:29:43;19.37;;;4.20;;
27893;SDS011;15240;50.812;4.792;2023-02-01T17:32:22;27.97;;;7.20;;
27893;SDS011;15240;50.812;4.792;2023-02-01T17:34:49;18.30;;;4.00;;
27893;SDS011;15240;50.812;4.792;2023-02-01T17:37:26;16.77;;;4.17;;
27893;SDS011;15240;50.812;4.792;2023-02-01T17:39:52;13.07;;;3.90;;
27893;SDS011;15240;50.812;4.792;2023-02-01T17:42:18;20.63;;;4.47;;
27893;SDS011;15240;50.812;4.792;2023-02-01T17:44:45;17.43;;;4.27;;
27893;SDS011;15240;50.812;4.792;2023-02-01T17:47:11;17.10;;;5.30;;
27893;SDS011;15240;50.812;4.792;2023-02-01T17:49:37;21.57;;;4.50;;
27893;SDS011;15240;50.812;4.792;2023-02-01T17:52:07;20.73;;;4.10;;
27893;SDS011;15240;50.812;4.792;2023-02-01T17:54:35;21.47;;;4.90;;
27893;SDS011;15240;50.812;4.792;2023-02-01T17:57:01;17.03;;;4.30;;
27893;SDS011;15240;50.812;4.792;2023-02-01T17:59:28;26.63;;;5.53;;
27893;SDS011;15240;50.812;4.792;2023-02-01T18:01:54;23.37;;;4.50;;
27893;SDS011;15240;50.812;4.792;2023-02-01T18:04:24;13.60;;;3.83;;
27893;SDS011;15240;50.812;4.792;2023-02-01T18:06:51;16.40;;;4.60;;
27893;SDS011;15240;50.812;4.792;2023-02-01T18:09:17;18.17;;;3.70;;
27893;SDS011;15240;50.812;4.792;2023-02-01T18:11:43;23.40;;;5.17;;
27893;SDS011;15240;50.812;4.792;2023-02-01T18:14:10;24.33;;;8.40;;
27893;SDS011;15240;50.812;4.792;2023-02-01T18:16:37;17.97;;;4.30;;
27893;SDS011;15240;50.812;4.792;2023-02-01T18:19:03;24.17;;;4.70;;
27893;SDS011;15240;50.812;4.792;2023-02-01T18:21:42;13.83;;;4.23;;
27893;SDS011;15240;50.812;4.792;2023-02-01T18:24:11;16.47;;;4.63;;
27893;SDS011;15240;50.812;4.792;2023-02-01T18:26:37;19.43;;;4.60;;
27893;SDS011;15240;50.812;4.792;2023-02-01T18:29:03;18.70;;;4.30;;
27893;SDS011;15240;50.812;4.792;2023-02-01T18:31:30;19.30;;;4.47;;
27893;SDS011;15240;50.812;4.792;2023-02-01T18:33:57;14.70;;;4.17;;
27893;SDS011;15240;50.812;4.792;2023-02-01T18:36:24;20.13;;;4.17;;
27893;SDS011;15240;50.812;4.792;2023-02-01T18:38:50;19.03;;;4.53;;
27893;SDS011;15240;50.812;4.792;2023-02-01T18:41:20;23.87;;;4.70;;
27893;SDS011;15240;50.812;4.792;2023-02-01T18:43:47;21.13;;;6.23;;
27893;SDS011;15240;50.812;4.792;2023-02-01T18:46:13;28.80;;;6.17;;
27893;SDS011;15240;50.812;4.792;2023-02-01T18:48:40;16.67;;;5.03;;
27893;SDS011;15240;50.812;4.792;2023-02-01T18:51:10;17.40;;;4.33;;
27893;SDS011;15240;50.812;4.792;2023-02-01T18:53:38;19.37;;;5.30;;
27893;SDS011;15240;50.812;4.792;2023-02-01T18:56:04;22.40;;;5.43;;
27893;SDS011;15240;50.812;4.792;2023-02-01T18:58:30;21.70;;;5.27;;
27893;SDS011;15240;50.812;4.792;2023-02-01T19:00:57;27.30;;;5.40;;
27893;SDS011;15240;50.812;4.792;2023-02-01T19:03:23;22.90;;;5.50;;
27893;SDS011;15240;50.812;4.792;2023-02-01T19:05:51;22.13;;;5.73;;
27893;SDS011;15240;50.812;4.792;2023-02-01T19:08:19;20.93;;;5.03;;
27893;SDS011;15240;50.812;4.792;2023-02-01T19:10:45;17.47;;;4.73;;
27893;SDS011;15240;50.812;4.792;2023-02-01T19:13:13;20.10;;;5.00;;
27893;SDS011;15240;50.812;4.792;2023-02-01T19:15:39;21.30;;;4.67;;
27893;SDS011;15240;50.812;4.792;2023-02-01T19:18:06;24.47;;;5.43;;
27893;SDS011;15240;50.812;4.792;2023-02-01T19:20:33;20.33;;;5.37;;
27893;SDS011;15240;50.812;4.792;2023-02-01T19:22:59;23.10;;;4.60;;
27893;SDS011;15240;50.812;4.792;2023-02-01T19:25:26;19.53;;;5.17;;
27893;SDS011;15240;50.812;4.792;2023-02-01T19:27:53;20.67;;;4.77;;
27893;SDS011;15240;50.812;4.792;2023-02-01T19:30:20;25.90;;;5.60;;
27893;SDS011;15240;50.812;4.792;2023-02-01T19:32:46;24.87;;;6.13;;
27893;SDS011;15240;50.812;4.792;2023-02-01T19:35:13;20.30;;;5.27;;
27893;SDS011;15240;50.812;4.792;2023-02-01T19:37:44;23.17;;;5.80;;
27893;SDS011;15240;50.812;4.792;2023-02-01T19:40:11;21.07;;;4.87;;
27893;SDS011;15240;50.812;4.792;2023-02-01T19:42:38;26.17;;;5.53;;
27893;SDS011;15240;50.812;4.792;2023-02-01T19:45:04;27.70;;;6.23;;
27893;SDS011;15240;50.812;4.792;2023-02-01T19:47:34;30.07;;;6.20;;
27893;SDS011;15240;50.812;4.792;2023-02-01T19:50:00;26.77;;;6.53;;
27893;SDS011;15240;50.812;4.792;2023-02-01T19:52:26;24.57;;;7.27;;
27893;SDS011;15240;50.812;4.792;2023-02-01T19:54:52;26.13;;;7.30;;
27893;SDS011;15240;50.812;4.792;2023-02-01T19:57:18;23.27;;;6.83;;
27893;SDS011;15240;50.812;4.792;2023-02-01T19:59:44;27.63;;;9.17;;
27893;SDS011;15240;50.812;4.792;2023-02-01T20:02:14;33.50;;;8.93;;
27893;SDS011;15240;50.812;4.792;2023-02-01T20:04:40;33.17;;;8.60;;
27893;SDS011;15240;50.812;4.792;2023-02-01T20:07:06;22.90;;;7.73;;
27893;SDS011;15240;50.812;4.792;2023-02-01T20:09:36;28.10;;;9.13;;
27893;SDS011;15240;50.812;4.792;2023-02-01T20:12:02;36.13;;;13.13;;
27893;SDS011;15240;50.812;4.792;2023-02-01T20:14:29;27.33;;;7.53;;
27893;SDS011;15240;50.812;4.792;2023-02-01T20:16:55;29.20;;;6.27;;
27893;SDS011;15240;50.812;4.792;2023-02-01T20:19:21;38.23;;;12.50;;
27893;SDS011;15240;50.812;4.792;2023-02-01T20:21:47;34.63;;;8.07;;
27893;SDS011;15240;50.812;4.792;2023-02-01T20:24:15;49.93;;;17.80;;
27893;SDS011;15240;50.812;4.792;2023-02-01T20:26:42;36.70;;;10.20;;
27893;SDS011;15240;50.812;4.792;2023-02-01T20:29:08;38.63;;;12.93;;
27893;SDS011;15240;50.812;4.792;2023-02-01T20:31:34;29.67;;;7.80;;
27893;SDS011;15240;50.812;4.792;2023-02-01T20:34:01;29.10;;;7.20;;
27893;SDS011;15240;50.812;4.792;2023-02-01T20:36:28;33.87;;;9.13;;
27893;SDS011;15240;50.812;4.792;2023-02-01T20:38:55;27.80;;;7.23;;
27893;SDS011;15240;50.812;4.792;2023-02-01T20:41:21;29.63;;;8.37;;
27893;SDS011;15240;50.812;4.792;2023-02-01T20:43:47;31.57;;;8.57;;
27893;SDS011;15240;50.812;4.792;2023-02-01T20:46:13;30.30;;;6.60;;
27893;SDS011;15240;50.812;4.792;2023-02-01T20:48:46;31.93;;;8.43;;
27893;SDS011;15240;50.812;4.792;2023-02-01T20:51:13;28.47;;;6.90;;
27893;SDS011;15240;50.812;4.792;2023-02-01T20:53:40;30.20;;;8.17;;
27893;SDS011;15240;50.812;4.792;2023-02-01T20:56:08;31.97;;;9.40;;
27893;SDS011;15240;50.812;4.792;2023-02-01T20:58:35;32.13;;;6.73;;
27893;SDS011;15240;50.812;4.792;2023-02-01T21:01:01;23.70;;;6.50;;
27893;SDS011;15240;50.812;4.792;2023-02-01T21:03:28;26.83;;;5.80;;
27893;SDS011;15240;50.812;4.792;2023-02-01T21:05:55;28.13;;;6.13;;
27893;SDS011;15240;50.812;4.792;2023-02-01T21:08:22;24.40;;;6.20;;
27893;SDS011;15240;50.812;4.792;2023-02-01T21:13:33;23.30;;;5.50;;
27893;SDS011;15240;50.812;4.792;2023-02-01T21:16:01;30.77;;;7.00;;
27893;SDS011;15240;50.812;4.792;2023-02-01T21:18:28;26.77;;;6.50;;
27893;SDS011;15240;50.812;4.792;2023-02-01T21:20:54;25.43;;;5.43;;
27893;SDS011;15240;50.812;4.792;2023-02-01T21:23:20;29.50;;;9.37;;
27893;SDS011;15240;50.812;4.792;2023-02-01T21:25:46;27.60;;;6.83;;
27893;SDS011;15240;50.812;4.792;2023-02-01T21:28:12;28.70;;;5.40;;
27893;SDS011;15240;50.812;4.792;2023-02-01T21:30:38;28.17;;;6.33;;
27893;SDS011;15240;50.812;4.792;2023-02-01T21:33:05;25.17;;;6.83;;
27893;SDS011;15240;50.812;4.792;2023-02-01T21:35:31;24.20;;;5.57;;
27893;SDS011;15240;50.812;4.792;2023-02-01T21:37:58;20.70;;;5.47;;
27893;SDS011;15240;50.812;4.792;2023-02-01T21:40:24;28.63;;;5.73;;
27893;SDS011;15240;50.812;4.792;2023-02-01T21:42:50;31.10;;;7.63;;
27893;SDS011;15240;50.812;4.792;2023-02-01T21:45:16;30.03;;;6.10;;
27893;SDS011;15240;50.812;4.792;2023-02-01T21:47:42;26.60;;;5.73;;
27893;SDS011;15240;50.812;4.792;2023-02-01T21:50:09;29.23;;;5.67;;
27893;SDS011;15240;50.812;4.792;2023-02-01T21:52:38;21.90;;;4.87;;
27893;SDS011;15240;50.812;4.792;2023-02-01T21:55:04;23.67;;;5.53;;
27893;SDS011;15240;50.812;4.792;2023-02-01T21:57:31;26.90;;;5.83;;
27893;SDS011;15240;50.812;4.792;2023-02-01T21:59:57;23.00;;;5.43;;
27893;SDS011;15240;50.812;4.792;2023-02-01T22:02:23;27.13;;;5.83;;
27893;SDS011;15240;50.812;4.792;2023-02-01T22:04:50;23.87;;;5.67;;
27893;SDS011;15240;50.812;4.792;2023-02-01T22:07:16;30.77;;;5.63;;
27893;SDS011;15240;50.812;4.792;2023-02-01T22:09:42;24.77;;;5.37;;
27893;SDS011;15240;50.812;4.792;2023-02-01T22:12:10;20.50;;;5.17;;
27893;SDS011;15240;50.812;4.792;2023-02-01T22:14:37;28.87;;;5.70;;
27893;SDS011;15240;50.812;4.792;2023-02-01T22:17:04;25.50;;;5.67;;
27893;SDS011;15240;50.812;4.792;2023-02-01T22:19:30;24.07;;;5.40;;
27893;SDS011;15240;50.812;4.792;2023-02-01T22:21:56;26.07;;;5.07;;
27893;SDS011;15240;50.812;4.792;2023-02-01T22:24:22;22.57;;;5.27;;
27893;SDS011;15240;50.812;4.792;2023-02-01T22:26:48;23.00;;;5.67;;
27893;SDS011;15240;50.812;4.792;2023-02-01T22:29:14;25.77;;;5.40;;
27893;SDS011;15240;50.812;4.792;2023-02-01T22:31:43;26.20;;;5.83;;
27893;SDS011;15240;50.812;4.792;2023-02-01T22:34:09;27.40;;;5.43;;
27893;SDS011;15240;50.812;4.792;2023-02-01T22:36:36;25.23;;;5.87;;
27893;SDS011;15240;50.812;4.792;2023-02-01T22:39:02;30.40;;;6.20;;
27893;SDS011;15240;50.812;4.792;2023-02-01T22:41:28;21.80;;;5.33;;
27893;SDS011;15240;50.812;4.792;2023-02-01T22:43:54;21.93;;;5.47;;
27893;SDS011;15240;50.812;4.792;2023-02-01T22:46:22;22.57;;;5.13;;
27893;SDS011;15240;50.812;4.792;2023-02-01T22:48:51;27.03;;;4.70;;
27893;SDS011;15240;50.812;4.792;2023-02-01T22:51:21;24.30;;;4.67;;
27893;SDS011;15240;50.812;4.792;2023-02-01T22:53:48;23.67;;;5.57;;
27893;SDS011;15240;50.812;4.792;2023-02-01T22:56:22;23.37;;;5.07;;
27893;SDS011;15240;50.812;4.792;2023-02-01T22:58:51;25.03;;;5.27;;
27893;SDS011;15240;50.812;4.792;2023-02-01T23:01:17;19.20;;;5.47;;
27893;SDS011;15240;50.812;4.792;2023-02-01T23:03:43;22.03;;;5.60;;
27893;SDS011;15240;50.812;4.792;2023-02-01T23:06:09;22.63;;;5.60;;
27893;SDS011;15240;50.812;4.792;2023-02-01T23:08:35;22.60;;;4.70;;
27893;SDS011;15240;50.812;4.792;2023-02-01T23:11:05;23.40;;;5.07;;
27893;SDS011;15240;50.812;4.792;2023-02-01T23:13:31;28.37;;;5.80;;
27893;SDS011;15240;50.812;4.792;2023-02-01T23:15:57;21.63;;;4.83;;
27893;SDS011;15240;50.812;4.792;2023-02-01T23:18:24;24.10;;;5.10;;
27893;SDS011;15240;50.812;4.792;2023-02-01T23:20:51;24.77;;;5.00;;
27893;SDS011;15240;50.812;4.792;2023-02-01T23:23:17;23.10;;;4.87;;
27893;SDS011;15240;50.812;4.792;2023-02-01T23:25:48;21.27;;;4.70;;
27893;SDS011;15240;50.812;4.792;2023-02-01T23:28:14;21.47;;;4.90;;
27893;SDS011;15240;50.812;4.792;2023-02-01T23:30:41;25.87;;;5.07;;
27893;SDS011;15240;50.812;4.792;2023-02-01T23:33:07;18.93;;;4.40;;
27893;SDS011;15240;50.812;4.792;2023-02-01T23:35:33;27.17;;;4.73;;
27893;SDS011;15240;50.812;4.792;2023-02-01T23:38:00;23.77;;;5.37;;
27893;SDS011;15240;50.812;4.792;2023-02-01T23:40:26;18.67;;;4.60;;
27893;SDS011;15240;50.812;4.792;2023-02-01T23:42:52;17.10;;;4.57;;
27893;SDS011;15240;50.812;4.792;2023-02-01T23:45:37;24.77;;;4.80;;
27893;SDS011;15240;50.812;4.792;2023-02-01T23:48:03;19.70;;;4.63;;
27893;SDS011;15240;50.812;4.792;2023-02-01T23:50:29;16.67;;;4.63;;
27893;SDS011;15240;50.812;4.792;2023-02-01T23:52:55;17.97;;;4.17;;
27893;SDS011;15240;50.812;4.792;2023-02-01T23:55:21;22.57;;;4.77;;
27893;SDS011;15240;50.812;4.792;2023-02-01T23:57:47;20.57;;;4.37;;
